createdAt,value
2022-10-29T00:00:38.144Z,14.40
2022-10-29T00:06:12.486Z,14.42
2022-10-29T00:11:34.263Z,14.27
2022-10-29T00:16:57.007Z,14.22
2022-10-29T00:22:17.766Z,14.19
2022-10-29T00:27:38.581Z,14.23
2022-10-29T00:32:59.196Z,14.36
2022-10-29T00:38:19.797Z,14.29
2022-10-29T00:43:52.227Z,14.39
2022-10-29T00:49:13.307Z,14.43
2022-10-29T00:54:38.818Z,14.29
2022-10-29T00:59:59.656Z,14.18
2022-10-29T01:05:28.993Z,14.25
2022-10-29T01:11:20.031Z,14.10
2022-10-29T01:17:03.975Z,13.93
2022-10-29T01:22:45.239Z,13.92
2022-10-29T01:28:36.940Z,14.04
2022-10-29T01:34:18.934Z,14.01
2022-10-29T01:40:01.347Z,13.84
2022-10-29T01:45:25.559Z,13.83
2022-10-29T01:50:51.915Z,13.87
2022-10-29T01:56:12.754Z,13.95
2022-10-29T02:01:39.776Z,13.86
2022-10-29T02:07:33.020Z,13.59
2022-10-29T02:12:56.011Z,13.43
2022-10-29T02:18:17.797Z,13.44
2022-10-29T02:23:38.560Z,13.36
2022-10-29T02:28:59.407Z,13.07
2022-10-29T02:34:19.977Z,12.92
2022-10-29T02:39:40.713Z,12.93
2022-10-29T02:45:01.566Z,13.04
2022-10-29T02:50:22.163Z,12.98
2022-10-29T02:55:42.876Z,13.00
2022-10-29T03:01:04.327Z,13.04
2022-10-29T03:06:25.425Z,13.17
2022-10-29T03:11:46.001Z,13.07
2022-10-29T03:17:06.744Z,12.85
2022-10-29T03:22:27.412Z,12.78
2022-10-29T03:27:48.401Z,12.84
2022-10-29T03:33:09.224Z,12.83
2022-10-29T03:38:30.091Z,12.74
2022-10-29T03:43:51.117Z,12.67
2022-10-29T03:49:11.893Z,12.59
2022-10-29T03:54:32.658Z,12.54
2022-10-29T03:59:54.439Z,12.55
2022-10-29T04:05:15.105Z,12.61
2022-10-29T04:10:35.648Z,12.76
2022-10-29T04:15:56.937Z,12.77
2022-10-29T04:32:39.488Z,12.83
2022-10-29T04:38:00.048Z,12.86
2022-10-29T04:43:20.757Z,12.94
2022-10-29T04:48:41.422Z,12.90
2022-10-29T04:54:01.986Z,12.84
2022-10-29T04:59:22.555Z,12.74
2022-10-29T05:04:43.225Z,12.68
2022-10-29T05:10:04.131Z,12.61
2022-10-29T05:15:25.252Z,12.52
2022-10-29T05:20:46.353Z,12.35
2022-10-29T05:26:06.828Z,12.31
2022-10-29T05:31:27.669Z,12.38
2022-10-29T05:36:48.332Z,12.37
2022-10-29T05:42:08.890Z,12.28
2022-10-29T05:47:29.402Z,12.13
2022-10-29T05:53:16.299Z,12.18
2022-10-29T05:58:36.976Z,12.14
2022-10-29T06:03:58.139Z,12.10
2022-10-29T06:09:19.026Z,12.09
2022-10-29T06:14:39.626Z,12.11
2022-10-29T06:20:00.325Z,12.14
2022-10-29T06:25:20.879Z,12.22
2022-10-29T06:30:45.735Z,12.33
2022-10-29T06:36:07.082Z,12.24
2022-10-29T06:41:28.794Z,12.34
2022-10-29T06:46:51.189Z,12.53
2022-10-29T06:52:11.707Z,12.45
2022-10-29T06:57:32.415Z,12.47
2022-10-29T07:02:53.297Z,12.45
2022-10-29T07:08:14.224Z,12.48
2022-10-29T07:13:35.797Z,12.59
2022-10-29T07:18:56.666Z,12.74
2022-10-29T07:24:20.052Z,12.80
2022-10-29T07:29:41.003Z,12.80
2022-10-29T07:35:01.662Z,12.91
2022-10-29T07:40:22.263Z,13.24
2022-10-29T07:45:45.273Z,13.44
2022-10-29T07:51:06.093Z,13.44
2022-10-29T07:56:27.807Z,13.40
2022-10-29T08:01:48.833Z,13.55
2022-10-29T08:07:09.913Z,13.80
2022-10-29T08:12:30.615Z,13.80
2022-10-29T08:17:51.604Z,13.90
2022-10-29T08:23:13.569Z,13.98
2022-10-29T08:28:35.802Z,14.14
2022-10-29T08:33:56.721Z,14.29
2022-10-29T08:39:17.261Z,14.43
2022-10-29T08:44:53.772Z,14.63
2022-10-29T08:50:29.857Z,14.71
2022-10-29T08:55:50.687Z,14.76
2022-10-29T09:01:12.511Z,14.81
2022-10-29T09:06:49.205Z,14.77
2022-10-29T09:12:33.027Z,14.84
2022-10-29T09:18:10.102Z,14.85
2022-10-29T09:24:00.335Z,14.90
2022-10-29T09:29:33.139Z,14.90
2022-10-29T09:35:00.505Z,14.94
2022-10-29T09:40:37.784Z,15.12
2022-10-29T09:46:10.474Z,15.30
2022-10-29T09:51:53.603Z,15.47
2022-10-29T09:57:24.110Z,15.63
2022-10-29T10:02:54.810Z,15.85
2022-10-29T10:08:15.759Z,16.08
2022-10-29T10:13:50.017Z,16.27
2022-10-29T10:19:25.689Z,16.37
2022-10-29T10:24:47.219Z,16.48
2022-10-29T10:30:16.018Z,16.63
2022-10-29T10:35:37.698Z,16.75
2022-10-29T10:41:05.091Z,16.89
2022-10-29T10:46:30.801Z,16.99
2022-10-29T10:51:54.383Z,17.15
2022-10-29T10:57:17.124Z,17.30
2022-10-29T11:02:54.983Z,17.47
2022-10-29T11:08:23.590Z,17.65
2022-10-29T11:13:44.441Z,17.84
2022-10-29T11:19:34.202Z,18.01
2022-10-29T11:24:59.616Z,18.15
2022-10-29T11:30:20.653Z,18.26
2022-10-29T11:36:01.440Z,18.32
2022-10-29T11:41:48.331Z,18.38
2022-10-29T11:47:30.165Z,18.51
2022-10-29T11:52:54.176Z,18.62
2022-10-29T11:58:34.319Z,18.75
2022-10-29T12:04:24.387Z,18.84
2022-10-29T12:10:06.804Z,18.84
2022-10-29T12:15:37.127Z,18.88
2022-10-29T12:21:08.260Z,18.90
2022-10-29T12:26:46.263Z,19.00
2022-10-29T12:32:33.508Z,19.13
2022-10-29T12:38:32.067Z,19.15
2022-10-29T12:44:04.126Z,19.15
2022-10-29T12:49:45.742Z,19.12
2022-10-29T12:55:10.494Z,19.13
2022-10-29T13:00:49.650Z,19.18
2022-10-29T13:06:44.337Z,19.24
2022-10-29T13:12:10.014Z,19.23
2022-10-29T13:17:40.208Z,19.30
2022-10-29T13:23:04.013Z,19.29
2022-10-29T13:28:28.021Z,19.25
2022-10-29T13:33:49.966Z,19.24
2022-10-29T13:39:19.580Z,19.26
2022-10-29T13:44:40.627Z,19.31
2022-10-29T13:50:01.498Z,19.33
2022-10-29T13:55:23.092Z,19.36
2022-10-29T14:00:46.343Z,19.34
2022-10-29T14:06:20.740Z,19.31
2022-10-29T14:11:52.584Z,19.25
2022-10-29T14:17:16.180Z,19.22
2022-10-29T14:22:41.097Z,19.18
2022-10-29T14:28:31.699Z,19.12
2022-10-29T14:33:57.702Z,19.14
2022-10-29T14:39:32.791Z,19.12
2022-10-29T14:45:00.867Z,19.07
2022-10-29T14:50:24.180Z,18.95
2022-10-29T14:55:50.106Z,18.81
2022-10-29T15:01:20.441Z,18.72
2022-10-29T15:06:41.292Z,18.63
2022-10-29T15:12:07.528Z,18.57
2022-10-29T15:17:31.838Z,18.47
2022-10-29T15:22:55.775Z,18.42
2022-10-29T15:28:24.594Z,18.37
2022-10-29T15:33:45.537Z,18.30
2022-10-29T15:39:20.243Z,18.29
2022-10-29T15:44:41.218Z,18.24
2022-10-29T15:50:02.541Z,18.12
2022-10-29T15:55:29.601Z,18.02
2022-10-29T16:00:51.679Z,17.90
2022-10-29T16:06:12.911Z,17.86
2022-10-29T16:11:35.091Z,17.63
2022-10-29T16:16:55.678Z,17.52
2022-10-29T16:22:30.111Z,17.57
2022-10-29T16:27:51.124Z,17.54
2022-10-29T16:33:12.324Z,17.39
2022-10-29T16:38:33.296Z,17.35
2022-10-29T16:43:54.115Z,17.20
2022-10-29T16:49:14.708Z,17.08
2022-10-29T16:54:35.253Z,17.03
2022-10-29T16:59:55.962Z,16.94
2022-10-29T17:05:17.091Z,16.90
2022-10-29T17:10:37.884Z,16.86
2022-10-29T17:15:58.540Z,16.85
2022-10-29T17:21:19.309Z,16.83
2022-10-29T17:26:40.108Z,16.76
2022-10-29T17:32:01.311Z,16.67
2022-10-29T17:37:22.126Z,16.67
2022-10-29T17:42:42.940Z,16.66
2022-10-29T17:48:03.817Z,16.50
2022-10-29T17:53:26.062Z,16.49
2022-10-29T17:58:47.252Z,16.54
2022-10-29T18:04:07.878Z,16.63
2022-10-29T18:09:28.643Z,16.67
2022-10-29T18:14:49.211Z,16.63
2022-10-29T18:20:10.515Z,16.58
2022-10-29T18:25:31.373Z,16.55
2022-10-29T18:30:52.040Z,16.54
2022-10-29T18:36:12.908Z,16.60
2022-10-29T18:41:34.574Z,16.61
2022-10-29T18:46:55.253Z,16.54
2022-10-29T18:52:16.166Z,16.54
2022-10-29T18:57:36.804Z,16.53
2022-10-29T19:02:57.741Z,16.54
2022-10-29T19:08:18.657Z,16.52
2022-10-29T19:13:40.135Z,16.43
2022-10-29T19:24:29.660Z,16.41
2022-10-29T19:29:50.709Z,16.42
2022-10-29T19:35:11.620Z,16.43
2022-10-29T19:40:32.142Z,16.34
2022-10-29T19:45:53.313Z,16.21
2022-10-29T19:51:13.930Z,16.14
2022-10-29T19:56:34.667Z,15.99
2022-10-29T20:01:55.394Z,15.97
2022-10-29T20:07:15.710Z,15.92
2022-10-29T20:12:36.300Z,15.77
2022-10-29T20:17:59.832Z,15.60
2022-10-29T20:23:21.231Z,15.44
2022-10-29T20:28:42.419Z,15.29
2022-10-29T20:34:03.414Z,15.35
2022-10-29T20:39:25.534Z,15.34
2022-10-29T20:44:47.858Z,15.26
2022-10-29T20:50:09.164Z,15.28
2022-10-29T20:55:29.682Z,15.34
2022-10-29T21:00:50.557Z,15.36
2022-10-29T21:06:17.008Z,15.17
2022-10-29T21:11:38.006Z,15.13
2022-10-29T21:16:58.592Z,15.23
2022-10-29T21:22:19.238Z,15.27
2022-10-29T21:27:40.296Z,15.20
2022-10-29T21:33:00.839Z,15.09
2022-10-29T21:38:22.673Z,15.05
2022-10-29T21:43:43.803Z,15.01
2022-10-29T21:49:04.600Z,14.90
2022-10-29T21:54:28.389Z,15.11
2022-10-29T21:59:49.422Z,15.15
2022-10-29T22:05:10.032Z,15.16
2022-10-29T22:10:30.654Z,14.96
2022-10-29T22:15:51.219Z,14.89
2022-10-29T22:21:20.436Z,14.71
2022-10-29T22:26:41.021Z,14.52
2022-10-29T22:32:01.592Z,14.45
2022-10-29T22:37:22.469Z,14.50
2022-10-29T22:42:43.309Z,14.48
2022-10-29T22:48:04.296Z,14.59
2022-10-29T22:53:25.146Z,14.63
2022-10-29T22:58:46.409Z,14.72
2022-10-29T23:04:07.057Z,14.70
2022-10-29T23:09:27.834Z,14.70
2022-10-29T23:14:48.533Z,14.70
2022-10-29T23:20:09.484Z,14.76
2022-10-29T23:25:30.494Z,14.81
2022-10-29T23:30:58.222Z,14.82
2022-10-29T23:36:21.774Z,14.75
2022-10-29T23:41:42.328Z,14.62
2022-10-29T23:47:03.192Z,14.53
2022-10-29T23:52:24.110Z,14.41
2022-10-29T23:57:44.663Z,14.46
